Terminal Aerodrome Forecast
Issued by NWS Pocatello, ID

Current Version | Previous Version | Text Only | Print | Product List | Glossary On
Versions: 1 2 3 4 5 6 7 8 9 10 11 12 13 14 15 16 17 18 19 20 21 22
000
FTUS45 KPIH 090242 AAA
TAFBYI
TAF AMD
KBYI 090242Z 0903/0924 07006KT 4SM -SN BR SCT008 OVC025
      TEMPO 0903/0906 1SM -SN BR
     FM090600 19015KT 4SM BR VCSH SCT015 OVC030
     FM090900 19006KT 4SM BR VCSH OVC008
     FM091200 20006KT P6SM SCT008 OVC015=

USA.gov is the U.S. government's official web portal to all federal, state and local government web resources and services.